EEKE

Kuressaare

Airport
ICAO code
EEKE
Summary
ICAO Region
EUR
ICAO Territory
Location

Kuressaare,

Coordinates
58° 13' 47" N , 22° 30' 36" E
Metar
Observation
EEKE 081920Z AUTO 31003KT 7000NDV BR NCD 13/12 Q1025
Station
Kuressaare
Date/Time
2022-08-08 19:20:00
Wind direction
310°
Wind speed
03 kts
Lowest cloud amount
no clouds detected
Temperature
13°C
Dew point
12°C
Humidity
93%
QNH
1025 hPa
Weather condition
n/a

Kuressaare Airport (IATA: URE, ICAO: EEKE) is an airport in Estonia. The airport is situated 3 km from the town of Kuressaare on Saaremaa island.

Runways

Designator Length Width Surface Rops
5/23 799 30 ASP No/No
17/35 1518 30 ASP No/No

Airport map

Aerial View

SKYbrary Partners:

Safety knowledge contributed by: